createdAt,value
2022-12-28T00:00:30.662Z,0.40
2022-12-28T00:01:34.129Z,0.50
2022-12-28T00:02:36.030Z,0.40
2022-12-28T00:03:38.000Z,0.55
2022-12-28T00:04:39.771Z,0.50
2022-12-28T00:05:41.564Z,0.30
2022-12-28T00:06:43.350Z,0.50
2022-12-28T00:07:45.163Z,0.30
2022-12-28T00:08:47.063Z,0.32
2022-12-28T00:09:49.056Z,0.40
2022-12-28T00:11:07.716Z,0.40
2022-12-28T00:12:11.289Z,0.38
2022-12-28T00:13:13.050Z,0.45
2022-12-28T00:14:14.986Z,0.50
2022-12-28T00:15:16.979Z,0.45
2022-12-28T00:16:24.245Z,0.32
2022-12-28T00:17:26.133Z,0.50
2022-12-28T00:18:27.908Z,0.40
2022-12-28T00:19:29.664Z,0.52
2022-12-28T00:20:31.635Z,0.40
2022-12-28T00:21:34.262Z,0.52
2022-12-28T00:22:36.115Z,0.47
2022-12-28T00:23:37.888Z,0.40
2022-12-28T00:24:39.768Z,0.38
2022-12-28T00:25:41.549Z,0.40
2022-12-28T00:26:43.410Z,0.40
2022-12-28T00:27:45.902Z,0.40
2022-12-28T00:28:48.687Z,0.70
2022-12-28T00:29:50.456Z,0.47
2022-12-28T00:30:52.228Z,0.30
2022-12-28T00:31:54.088Z,0.50
2022-12-28T00:32:58.935Z,0.50
2022-12-28T00:34:01.118Z,0.50
2022-12-28T00:35:03.300Z,0.50
2022-12-28T00:36:05.403Z,0.52
2022-12-28T00:37:12.953Z,0.50
2022-12-28T00:38:15.200Z,0.57
2022-12-28T00:39:17.043Z,0.40
2022-12-28T00:40:23.764Z,0.40
2022-12-28T00:41:26.082Z,0.80
2022-12-28T00:42:27.833Z,0.50
2022-12-28T00:43:29.683Z,0.70
2022-12-28T00:44:33.860Z,0.40
2022-12-28T00:45:35.659Z,0.68
2022-12-28T00:46:37.791Z,0.50
2022-12-28T00:47:39.539Z,0.60
2022-12-28T00:48:41.407Z,0.88
2022-12-28T00:49:43.177Z,0.60
2022-12-28T00:50:45.037Z,0.55
2022-12-28T00:51:46.868Z,0.38
2022-12-28T00:52:48.654Z,0.63
2022-12-28T00:53:50.415Z,0.60
2022-12-28T00:54:52.451Z,0.70
2022-12-28T00:55:54.401Z,0.50
2022-12-28T00:56:56.203Z,0.73
2022-12-28T00:58:01.831Z,0.75
2022-12-28T00:59:03.609Z,0.57
2022-12-28T01:00:06.116Z,0.65
2022-12-28T01:01:19.977Z,0.60
2022-12-28T01:02:21.929Z,0.60
2022-12-28T01:03:24.144Z,0.70
2022-12-28T01:04:26.463Z,0.50
2022-12-28T01:05:28.535Z,0.60
2022-12-28T01:06:30.361Z,0.70
2022-12-28T01:07:32.841Z,0.80
2022-12-28T01:08:36.682Z,0.70
2022-12-28T01:09:38.517Z,0.50
2022-12-28T01:10:40.472Z,0.70
2022-12-28T01:11:42.351Z,0.70
2022-12-28T01:12:44.222Z,0.75
2022-12-28T01:13:46.919Z,0.50
2022-12-28T01:14:48.863Z,0.63
2022-12-28T01:15:50.667Z,0.60
2022-12-28T01:16:52.593Z,0.50
2022-12-28T01:17:54.379Z,0.60
2022-12-28T01:18:59.759Z,0.55
2022-12-28T01:20:01.741Z,0.60
2022-12-28T01:21:18.469Z,0.80
2022-12-28T01:22:20.257Z,0.70
2022-12-28T01:23:22.023Z,0.60
2022-12-28T01:24:23.839Z,0.60
2022-12-28T01:25:25.884Z,0.73
2022-12-28T01:26:29.053Z,0.68
2022-12-28T01:27:30.842Z,0.52
2022-12-28T01:28:32.921Z,0.47
2022-12-28T01:29:34.710Z,0.40
2022-12-28T01:30:38.850Z,0.50
2022-12-28T01:31:41.047Z,0.60
2022-12-28T01:32:42.934Z,0.73
2022-12-28T01:33:45.190Z,0.88
2022-12-28T01:34:47.004Z,0.60
2022-12-28T01:35:48.848Z,0.73
2022-12-28T01:36:50.642Z,0.75
2022-12-28T01:37:52.720Z,0.65
2022-12-28T01:38:57.276Z,0.70
2022-12-28T01:39:59.495Z,0.93
2022-12-28T01:41:01.784Z,0.70
2022-12-28T01:42:03.839Z,0.88
2022-12-28T01:43:14.035Z,0.85
2022-12-28T01:44:39.862Z,0.57
2022-12-28T01:45:48.256Z,0.60
2022-12-28T01:46:54.729Z,0.73
2022-12-28T01:47:56.623Z,0.85
2022-12-28T01:49:08.018Z,0.70
2022-12-28T01:50:15.647Z,0.80
2022-12-28T01:51:19.679Z,0.90
2022-12-28T01:52:24.144Z,0.55
2022-12-28T01:53:26.080Z,0.85
2022-12-28T01:54:33.998Z,0.93
2022-12-28T01:55:39.628Z,0.68
2022-12-28T01:56:43.011Z,0.70
2022-12-28T01:57:48.324Z,0.82
2022-12-28T01:58:50.385Z,0.82
2022-12-28T02:00:02.541Z,0.90
2022-12-28T02:01:14.016Z,0.80
2022-12-28T02:02:16.573Z,0.50
2022-12-28T02:03:22.702Z,0.75
2022-12-28T02:04:26.350Z,0.88
2022-12-28T02:05:32.928Z,0.65
2022-12-28T02:06:34.834Z,0.55
2022-12-28T02:07:58.786Z,0.60
2022-12-28T02:09:04.937Z,0.88
2022-12-28T02:10:43.733Z,1.00
2022-12-28T02:11:30.663Z,0.90
2022-12-28T02:12:33.440Z,0.75
2022-12-28T02:13:36.048Z,0.90
2022-12-28T02:14:39.892Z,1.08
2022-12-28T02:15:43.942Z,0.80
2022-12-28T02:16:47.876Z,0.70
2022-12-28T02:17:50.215Z,0.90
2022-12-28T02:18:52.456Z,0.93
2022-12-28T02:19:54.371Z,0.70
2022-12-28T02:20:58.992Z,0.90
2022-12-28T02:22:13.268Z,1.00
2022-12-28T02:23:32.795Z,0.90
2022-12-28T02:25:11.343Z,0.95
2022-12-28T02:26:30.542Z,1.13
2022-12-28T02:28:01.062Z,0.80
2022-12-28T02:29:22.502Z,0.80
2022-12-28T02:30:24.629Z,0.63
2022-12-28T02:31:32.145Z,0.88
2022-12-28T02:32:45.879Z,0.73
2022-12-28T02:34:10.258Z,0.80
2022-12-28T02:35:32.501Z,0.77
2022-12-28T02:36:41.746Z,0.88
2022-12-28T02:37:55.372Z,0.90
2022-12-28T02:39:06.919Z,0.90
2022-12-28T02:40:14.359Z,0.60
2022-12-28T02:41:20.690Z,0.82
2022-12-28T02:42:25.535Z,0.75
2022-12-28T02:43:28.113Z,0.65
2022-12-28T02:44:48.689Z,1.00
2022-12-28T02:46:10.546Z,0.85
2022-12-28T02:47:35.742Z,1.02
2022-12-28T02:49:00.524Z,0.88
2022-12-28T02:50:06.565Z,0.80
2022-12-28T02:51:22.368Z,0.80
2022-12-28T02:52:36.110Z,0.75
2022-12-28T02:53:58.979Z,0.98
2022-12-28T02:55:57.989Z,1.00
2022-12-28T02:57:13.935Z,0.80
2022-12-28T02:58:47.877Z,0.85
2022-12-28T03:00:04.737Z,0.88
2022-12-28T03:01:34.155Z,0.90
2022-12-28T03:03:02.435Z,0.75
2022-12-28T03:04:42.375Z,0.70
2022-12-28T03:06:33.804Z,0.90
2022-12-28T03:08:03.458Z,0.93
2022-12-28T03:09:23.135Z,0.85
2022-12-28T03:10:32.045Z,0.70
2022-12-28T03:11:45.685Z,0.63
2022-12-28T03:12:53.299Z,0.70
2022-12-28T03:14:03.632Z,0.88
2022-12-28T03:15:13.440Z,1.00
2022-12-28T03:16:27.561Z,0.75
2022-12-28T03:17:50.715Z,0.70
2022-12-28T03:19:25.097Z,0.85
2022-12-28T03:20:49.556Z,0.80
2022-12-28T03:22:15.814Z,0.57
2022-12-28T03:23:40.423Z,0.80
2022-12-28T03:25:04.367Z,1.00
2022-12-28T03:26:29.378Z,0.80
2022-12-28T03:27:53.584Z,0.70
2022-12-28T03:29:21.559Z,0.73
2022-12-28T03:30:42.531Z,0.93
2022-12-28T03:31:45.083Z,1.05
2022-12-28T03:32:50.891Z,1.08
2022-12-28T03:34:06.774Z,0.68
2022-12-28T03:35:21.667Z,0.95
2022-12-28T03:36:42.239Z,1.02
2022-12-28T03:37:55.659Z,0.90
2022-12-28T03:39:09.584Z,1.10
2022-12-28T03:40:31.504Z,0.85
2022-12-28T03:42:14.114Z,0.75
2022-12-28T03:43:42.628Z,1.00
2022-12-28T03:44:56.673Z,0.82
2022-12-28T03:46:23.419Z,0.80
2022-12-28T03:47:29.640Z,0.77
2022-12-28T03:48:34.640Z,0.90
2022-12-28T03:49:37.982Z,0.80
2022-12-28T03:50:44.295Z,0.77
2022-12-28T03:51:49.209Z,0.90
2022-12-28T03:52:55.346Z,0.88
2022-12-28T03:53:57.900Z,0.65
2022-12-28T03:55:00.658Z,0.95
2022-12-28T03:56:08.598Z,0.85
2022-12-28T03:57:10.829Z,1.00
2022-12-28T03:58:17.102Z,0.70
2022-12-28T03:59:19.330Z,0.88
2022-12-28T04:00:25.411Z,0.75
2022-12-28T04:01:29.162Z,0.85
2022-12-28T04:02:31.302Z,1.05
2022-12-28T04:03:33.917Z,0.90
2022-12-28T04:04:36.009Z,0.95
2022-12-28T04:05:37.781Z,0.88
2022-12-28T04:06:39.943Z,1.08
2022-12-28T04:07:42.605Z,0.82
2022-12-28T04:08:45.438Z,0.70
2022-12-28T04:09:47.352Z,0.82
2022-12-28T04:10:49.178Z,0.93
2022-12-28T04:11:51.576Z,0.80
2022-12-28T04:13:01.496Z,0.90
2022-12-28T04:14:15.228Z,0.88
2022-12-28T04:15:18.658Z,1.00
2022-12-28T04:16:20.511Z,0.73
2022-12-28T04:17:22.420Z,0.93
2022-12-28T04:18:24.396Z,1.17
2022-12-28T04:19:26.212Z,0.85
2022-12-28T04:20:28.025Z,0.98
2022-12-28T04:21:30.224Z,0.88
2022-12-28T04:22:32.190Z,0.90
2022-12-28T04:23:35.026Z,0.80
2022-12-28T04:24:55.321Z,0.70
2022-12-28T04:26:02.380Z,0.80
2022-12-28T04:27:04.386Z,0.70
2022-12-28T04:28:06.288Z,1.05
2022-12-28T04:29:26.247Z,1.00
2022-12-28T04:30:35.003Z,1.05
2022-12-28T04:31:37.027Z,0.80
2022-12-28T04:32:42.350Z,0.80
2022-12-28T04:33:44.151Z,1.00
2022-12-28T04:34:48.686Z,0.80
2022-12-28T04:35:53.267Z,0.80
2022-12-28T04:36:55.298Z,1.05
2022-12-28T04:37:57.843Z,1.00
2022-12-28T04:39:00.253Z,0.80
2022-12-28T04:40:02.209Z,0.90
2022-12-28T04:41:05.611Z,0.75
2022-12-28T04:42:07.376Z,1.25
2022-12-28T04:43:09.390Z,1.00
2022-12-28T04:44:11.199Z,0.85
2022-12-28T04:45:16.977Z,0.95
2022-12-28T04:46:24.985Z,0.82
2022-12-28T04:47:26.922Z,0.60
2022-12-28T04:48:29.085Z,0.80
2022-12-28T04:49:30.894Z,0.88
2022-12-28T04:50:32.695Z,1.15
2022-12-28T04:51:35.414Z,0.80
2022-12-28T04:52:37.213Z,0.73
2022-12-28T04:53:40.648Z,0.55
2022-12-28T04:54:43.416Z,0.93
2022-12-28T04:55:45.279Z,0.93
2022-12-28T04:56:47.056Z,0.80
2022-12-28T04:57:48.828Z,0.70
2022-12-28T04:59:01.057Z,0.80
2022-12-28T05:00:03.728Z,0.98
2022-12-28T05:01:07.678Z,0.80
2022-12-28T05:02:09.572Z,0.70
2022-12-28T05:03:11.421Z,1.00
2022-12-28T05:04:13.348Z,0.80
2022-12-28T05:05:15.208Z,0.82
2022-12-28T05:06:20.524Z,0.98
2022-12-28T05:07:22.443Z,0.57
2022-12-28T05:08:24.204Z,0.80
2022-12-28T05:09:25.975Z,0.82
2022-12-28T05:10:29.016Z,0.82
2022-12-28T05:11:31.958Z,0.57
2022-12-28T05:12:33.772Z,0.75
2022-12-28T05:13:35.661Z,0.77
2022-12-28T05:14:37.525Z,0.82
2022-12-28T05:15:39.299Z,1.05
2022-12-28T05:16:41.140Z,0.95
2022-12-28T05:17:42.952Z,0.70
2022-12-28T05:18:45.409Z,0.82
2022-12-28T05:19:47.213Z,0.90
2022-12-28T05:20:49.100Z,0.77
2022-12-28T05:21:50.862Z,0.98
2022-12-28T05:22:52.653Z,0.88
2022-12-28T05:23:55.680Z,0.88
2022-12-28T05:24:57.500Z,0.90
2022-12-28T05:25:59.583Z,0.80
2022-12-28T05:27:01.683Z,0.82
2022-12-28T05:28:03.863Z,0.80
2022-12-28T05:29:05.693Z,0.68
2022-12-28T05:30:08.256Z,0.95
2022-12-28T05:31:13.224Z,0.75
2022-12-28T05:32:15.081Z,0.65
2022-12-28T05:33:17.363Z,0.80
2022-12-28T05:34:19.969Z,0.95
2022-12-28T05:35:21.751Z,0.93
2022-12-28T05:36:26.550Z,1.02
2022-12-28T05:37:28.334Z,0.70
2022-12-28T05:38:30.092Z,0.85
2022-12-28T05:39:32.098Z,0.82
2022-12-28T05:40:34.053Z,0.77
2022-12-28T05:41:35.824Z,0.95
2022-12-28T05:42:37.659Z,0.80
2022-12-28T05:43:39.807Z,1.00
2022-12-28T05:44:41.752Z,0.90
2022-12-28T05:45:43.514Z,0.85
2022-12-28T05:46:45.359Z,1.00
2022-12-28T05:47:47.186Z,0.70
2022-12-28T05:48:49.015Z,0.95
2022-12-28T05:49:50.851Z,0.75
2022-12-28T05:50:56.087Z,0.70
2022-12-28T05:51:58.811Z,0.80
2022-12-28T05:53:00.599Z,0.63
2022-12-28T05:54:06.551Z,0.90
2022-12-28T05:55:08.791Z,0.80
2022-12-28T05:56:14.374Z,0.60
2022-12-28T05:57:16.683Z,0.88
2022-12-28T05:58:18.444Z,0.85
2022-12-28T05:59:20.502Z,0.80
2022-12-28T06:00:22.389Z,0.88
2022-12-28T06:01:27.369Z,0.93
2022-12-28T06:02:29.294Z,0.90
2022-12-28T06:03:31.396Z,0.63
2022-12-28T06:04:33.275Z,0.85
2022-12-28T06:05:35.077Z,0.75
2022-12-28T06:06:36.989Z,0.95
2022-12-28T06:07:38.833Z,1.08
2022-12-28T06:08:41.709Z,0.68
2022-12-28T06:09:43.464Z,0.77
2022-12-28T06:10:45.256Z,0.80
2022-12-28T06:11:47.058Z,1.00
2022-12-28T06:12:48.876Z,1.02
2022-12-28T06:13:51.714Z,0.60
2022-12-28T06:14:53.608Z,0.70
2022-12-28T06:15:55.730Z,0.73
2022-12-28T06:16:57.558Z,0.80
2022-12-28T06:17:59.359Z,0.85
2022-12-28T06:19:06.404Z,0.88
2022-12-28T06:20:08.718Z,0.77
2022-12-28T06:21:23.055Z,0.90
2022-12-28T06:22:24.849Z,0.50
2022-12-28T06:23:26.684Z,0.95
2022-12-28T06:24:28.447Z,1.00
2022-12-28T06:25:30.284Z,0.57
2022-12-28T06:26:34.434Z,0.85
2022-12-28T06:27:36.192Z,0.60
2022-12-28T06:28:38.165Z,0.70
2022-12-28T06:29:39.969Z,0.95
2022-12-28T06:30:41.759Z,0.75
2022-12-28T06:31:51.378Z,0.90
2022-12-28T06:32:53.331Z,0.90
2022-12-28T06:33:57.334Z,0.90
2022-12-28T06:34:59.198Z,0.73
2022-12-28T06:36:01.545Z,0.80
2022-12-28T06:37:04.272Z,0.88
2022-12-28T06:38:06.640Z,0.80
2022-12-28T06:39:10.905Z,0.90
2022-12-28T06:40:12.782Z,0.73
2022-12-28T06:41:16.706Z,0.82
2022-12-28T06:42:18.513Z,1.05
2022-12-28T06:43:20.330Z,0.60
2022-12-28T06:44:22.100Z,0.70
2022-12-28T06:45:24.070Z,0.80
2022-12-28T06:46:30.814Z,0.85
2022-12-28T06:47:33.900Z,0.82
2022-12-28T06:48:36.790Z,0.82
2022-12-28T06:49:38.550Z,0.85
2022-12-28T06:50:40.457Z,1.05
2022-12-28T06:51:42.556Z,0.70
2022-12-28T06:52:44.505Z,0.90
2022-12-28T06:53:48.032Z,0.98
2022-12-28T06:54:49.799Z,0.80
2022-12-28T06:55:56.376Z,0.52
2022-12-28T06:56:58.219Z,0.55
2022-12-28T06:58:00.028Z,0.80
2022-12-28T06:59:03.968Z,0.80
2022-12-28T07:00:07.062Z,0.63
2022-12-28T07:01:33.671Z,0.88
2022-12-28T07:02:35.843Z,1.05
2022-12-28T07:03:37.726Z,0.60
2022-12-28T07:04:39.506Z,0.80
2022-12-28T07:05:41.316Z,1.10
2022-12-28T07:06:44.420Z,0.80
2022-12-28T07:07:46.258Z,1.00
2022-12-28T07:08:49.709Z,0.80
2022-12-28T07:09:51.465Z,0.90
2022-12-28T07:10:53.372Z,0.80
2022-12-28T07:11:55.167Z,0.70
2022-12-28T07:12:56.941Z,0.60
2022-12-28T07:13:59.271Z,0.73
2022-12-28T07:15:01.156Z,0.68
2022-12-28T07:16:17.500Z,0.93
2022-12-28T07:17:19.372Z,0.80
2022-12-28T07:18:21.153Z,0.90
2022-12-28T07:19:23.063Z,0.88
2022-12-28T07:20:25.008Z,0.60
2022-12-28T07:21:32.378Z,0.70
2022-12-28T07:22:34.210Z,0.85
2022-12-28T07:23:36.009Z,0.70
2022-12-28T07:24:38.044Z,0.90
2022-12-28T07:25:39.808Z,0.70
2022-12-28T07:26:41.556Z,0.88
2022-12-28T07:27:43.387Z,0.90
2022-12-28T07:28:46.823Z,1.00
2022-12-28T07:29:48.592Z,0.70
2022-12-28T07:30:50.486Z,0.73
2022-12-28T07:31:52.271Z,0.80
2022-12-28T07:32:54.037Z,0.70
2022-12-28T07:33:57.548Z,0.75
2022-12-28T07:34:59.314Z,0.63
2022-12-28T07:36:01.457Z,0.80
2022-12-28T07:37:03.228Z,1.17
2022-12-28T07:38:05.089Z,0.65
2022-12-28T07:39:07.821Z,0.90
2022-12-28T07:40:10.337Z,1.00
2022-12-28T07:41:23.975Z,0.80
2022-12-28T07:42:25.795Z,0.73
2022-12-28T07:43:30.465Z,0.80
2022-12-28T07:44:36.857Z,1.02
2022-12-28T07:45:40.080Z,0.90
2022-12-28T07:46:41.941Z,0.80
2022-12-28T07:47:43.712Z,0.73
2022-12-28T07:48:46.895Z,0.98
2022-12-28T07:49:48.673Z,0.65
2022-12-28T07:50:50.415Z,1.00
2022-12-28T07:51:52.164Z,0.75
2022-12-28T07:52:53.950Z,0.88
2022-12-28T07:53:57.581Z,1.00
2022-12-28T07:54:59.567Z,0.90
2022-12-28T07:56:01.418Z,0.88
2022-12-28T07:57:03.909Z,0.85
2022-12-28T07:58:05.695Z,0.80
2022-12-28T07:59:07.561Z,0.90
2022-12-28T08:00:10.271Z,0.85
2022-12-28T08:01:17.360Z,0.80
2022-12-28T08:02:19.411Z,0.60
2022-12-28T08:03:21.353Z,1.05
2022-12-28T08:04:23.144Z,0.88
2022-12-28T08:05:24.928Z,0.90
2022-12-28T08:06:28.651Z,0.63
2022-12-28T08:07:30.475Z,1.08
2022-12-28T08:08:34.952Z,0.80
2022-12-28T08:09:36.765Z,1.08
2022-12-28T08:10:38.557Z,0.90
2022-12-28T08:11:45.402Z,0.95
2022-12-28T08:12:47.280Z,0.80
2022-12-28T08:13:51.483Z,0.70
2022-12-28T08:14:53.361Z,0.80
2022-12-28T08:15:55.656Z,1.10
2022-12-28T08:16:57.453Z,0.88
2022-12-28T08:17:59.236Z,1.00
2022-12-28T08:19:01.432Z,0.90
2022-12-28T08:20:03.608Z,0.63
2022-12-28T08:21:08.563Z,1.10
2022-12-28T08:22:10.619Z,0.90
2022-12-28T08:23:12.436Z,1.00
2022-12-28T08:24:17.921Z,0.77
2022-12-28T08:25:19.878Z,1.17
2022-12-28T08:26:33.708Z,0.95
2022-12-28T08:27:38.610Z,0.90
2022-12-28T08:28:42.548Z,0.80
2022-12-28T08:29:44.326Z,0.77
2022-12-28T08:30:46.178Z,0.82
2022-12-28T08:31:48.992Z,0.80
2022-12-28T08:32:50.749Z,0.73
2022-12-28T08:33:53.568Z,0.80
2022-12-28T08:34:55.399Z,1.02
2022-12-28T08:35:57.755Z,1.20
2022-12-28T08:36:59.579Z,0.68
2022-12-28T08:38:01.349Z,0.75
2022-12-28T08:39:04.413Z,0.80
2022-12-28T08:40:06.879Z,0.90
2022-12-28T08:41:12.472Z,0.75
2022-12-28T08:42:14.235Z,1.08
2022-12-28T08:43:16.104Z,1.00
2022-12-28T08:44:17.908Z,0.80
2022-12-28T08:45:19.687Z,0.90
2022-12-28T08:46:24.116Z,0.75
2022-12-28T08:47:25.965Z,0.90
2022-12-28T08:48:28.779Z,1.10
2022-12-28T08:49:30.543Z,1.10
2022-12-28T08:50:33.336Z,1.08
2022-12-28T08:51:41.519Z,1.00
2022-12-28T08:52:43.503Z,0.90
2022-12-28T08:53:46.325Z,1.20
2022-12-28T08:54:48.083Z,0.90
2022-12-28T08:55:51.544Z,0.90
2022-12-28T08:56:53.766Z,0.73
2022-12-28T08:57:55.608Z,1.10
2022-12-28T08:58:58.511Z,1.00
2022-12-28T09:00:00.377Z,1.10
2022-12-28T09:01:10.120Z,1.10
2022-12-28T09:02:13.802Z,1.00
2022-12-28T09:03:15.772Z,1.02
2022-12-28T09:04:23.130Z,1.08
2022-12-28T09:05:24.949Z,1.08
2022-12-28T09:06:38.759Z,0.90
2022-12-28T09:07:40.550Z,0.70
2022-12-28T09:08:56.774Z,1.00
2022-12-28T09:10:05.188Z,1.15
2022-12-28T09:11:10.207Z,0.77
2022-12-28T09:12:11.988Z,0.90
2022-12-28T09:13:13.955Z,0.95
2022-12-28T09:14:22.815Z,0.90
2022-12-28T09:15:25.777Z,1.02
2022-12-28T09:16:28.709Z,0.93
2022-12-28T09:17:30.505Z,0.98
2022-12-28T09:18:32.833Z,0.95
2022-12-28T09:19:34.618Z,1.15
2022-12-28T09:20:36.494Z,0.90
2022-12-28T09:21:39.567Z,0.82
2022-12-28T09:22:41.338Z,1.10
2022-12-28T09:23:44.932Z,0.90
2022-12-28T09:24:46.707Z,1.10
2022-12-28T09:25:48.847Z,1.00
2022-12-28T09:26:52.802Z,0.80
2022-12-28T09:27:59.264Z,1.05
2022-12-28T09:29:03.449Z,0.90
2022-12-28T09:30:05.803Z,1.20
2022-12-28T09:31:09.050Z,0.88
2022-12-28T09:32:10.861Z,1.30
2022-12-28T09:33:31.008Z,1.05
2022-12-28T09:34:37.573Z,0.80
2022-12-28T09:35:39.777Z,0.73
2022-12-28T09:36:43.724Z,1.25
2022-12-28T09:37:45.507Z,1.10
2022-12-28T09:38:48.546Z,0.90
2022-12-28T09:39:50.341Z,1.02
2022-12-28T09:40:52.160Z,1.10
2022-12-28T09:42:02.998Z,1.00
2022-12-28T09:43:05.737Z,0.77
2022-12-28T09:44:14.373Z,1.13
2022-12-28T09:45:26.734Z,1.10
2022-12-28T09:46:32.784Z,1.40
2022-12-28T09:47:40.306Z,0.82
2022-12-28T09:48:42.300Z,1.00
2022-12-28T09:49:44.021Z,0.88
2022-12-28T09:50:47.874Z,0.60
2022-12-28T09:51:55.433Z,1.02
2022-12-28T09:53:24.738Z,0.90
2022-12-28T09:54:26.615Z,1.30
2022-12-28T09:55:29.331Z,1.20
2022-12-28T09:56:37.006Z,0.98
2022-12-28T09:57:44.766Z,1.00
2022-12-28T09:58:48.162Z,1.02
2022-12-28T09:59:52.415Z,1.13
2022-12-28T10:00:57.697Z,1.05
2022-12-28T10:02:04.333Z,0.90
2022-12-28T10:03:15.205Z,1.10
2022-12-28T10:04:17.014Z,1.02
2022-12-28T10:05:20.985Z,1.10
2022-12-28T10:06:26.321Z,1.20
2022-12-28T10:07:28.223Z,1.42
2022-12-28T10:08:30.322Z,1.20
2022-12-28T10:09:33.946Z,1.00
2022-12-28T10:10:35.734Z,1.15
2022-12-28T10:11:42.696Z,0.63
2022-12-28T10:12:45.679Z,0.93
2022-12-28T10:13:55.790Z,0.90
2022-12-28T10:14:59.605Z,1.08
2022-12-28T10:16:03.947Z,1.00
2022-12-28T10:17:07.746Z,1.23
2022-12-28T10:18:11.140Z,1.00
2022-12-28T10:19:18.533Z,1.10
2022-12-28T10:20:22.764Z,1.20
2022-12-28T10:21:32.935Z,0.90
2022-12-28T10:22:44.887Z,1.10
2022-12-28T10:24:29.731Z,0.80
2022-12-28T10:25:24.457Z,1.00
2022-12-28T10:26:26.375Z,1.02
2022-12-28T10:27:32.197Z,1.00
2022-12-28T10:28:48.757Z,1.20
2022-12-28T10:29:54.740Z,1.13
2022-12-28T10:31:08.676Z,0.90
2022-12-28T10:32:12.581Z,0.90
2022-12-28T10:33:19.459Z,1.38
2022-12-28T10:34:22.682Z,1.10
2022-12-28T10:35:40.989Z,1.08
2022-12-28T10:36:43.341Z,1.27
2022-12-28T10:37:45.130Z,0.95
2022-12-28T10:38:53.285Z,1.17
2022-12-28T10:39:58.901Z,1.10
2022-12-28T10:41:05.345Z,1.08
2022-12-28T10:42:21.434Z,0.90
2022-12-28T10:43:23.256Z,1.02
2022-12-28T10:44:41.573Z,1.27
2022-12-28T10:45:48.670Z,1.02
2022-12-28T10:47:00.991Z,1.17
2022-12-28T10:48:08.976Z,0.75
2022-12-28T10:49:15.775Z,1.10
2022-12-28T10:50:54.387Z,1.25
2022-12-28T10:52:18.456Z,1.17
2022-12-28T10:53:26.864Z,1.20
2022-12-28T10:54:32.858Z,0.90
2022-12-28T10:55:35.641Z,1.33
2022-12-28T10:56:49.489Z,1.00
2022-12-28T10:58:27.486Z,1.17
2022-12-28T10:59:13.041Z,1.30
2022-12-28T11:00:26.159Z,1.00
2022-12-28T11:01:30.284Z,0.98
2022-12-28T11:02:35.576Z,1.20
2022-12-28T11:03:40.199Z,1.10
2022-12-28T11:04:54.204Z,1.20
2022-12-28T11:06:32.751Z,1.02
2022-12-28T11:07:37.248Z,1.02
2022-12-28T11:08:41.176Z,1.20
2022-12-28T11:09:42.957Z,1.10
2022-12-28T11:10:44.856Z,1.30
2022-12-28T11:11:48.265Z,1.30
2022-12-28T11:12:52.118Z,1.17
2022-12-28T11:14:00.257Z,1.17
2022-12-28T11:15:02.092Z,1.30
2022-12-28T11:16:08.023Z,1.10
2022-12-28T11:17:25.348Z,1.40
2022-12-28T11:18:31.971Z,1.20
2022-12-28T11:19:36.603Z,1.13
2022-12-28T11:20:42.556Z,1.30
2022-12-28T11:21:44.769Z,1.05
2022-12-28T11:22:47.631Z,1.17
2022-12-28T11:23:51.619Z,1.20
2022-12-28T11:24:53.657Z,1.38
2022-12-28T11:25:55.456Z,1.50
2022-12-28T11:26:57.820Z,1.55
2022-12-28T11:27:59.840Z,1.45
2022-12-28T11:29:02.459Z,1.48
2022-12-28T11:30:05.014Z,1.42
2022-12-28T11:31:09.194Z,1.30
2022-12-28T11:32:25.529Z,1.10
2022-12-28T11:33:32.656Z,0.90
2022-12-28T11:34:37.437Z,1.52
2022-12-28T11:35:40.487Z,1.30
2022-12-28T11:36:42.496Z,1.00
2022-12-28T11:38:02.633Z,1.30
2022-12-28T11:39:27.868Z,1.20
2022-12-28T11:40:52.326Z,1.33
2022-12-28T11:43:29.747Z,1.05
2022-12-28T11:44:32.751Z,1.17
2022-12-28T11:46:26.797Z,1.30
2022-12-28T11:47:33.518Z,1.20
2022-12-28T11:48:41.405Z,1.65
2022-12-28T11:49:45.675Z,1.48
2022-12-28T11:50:52.747Z,1.65
2022-12-28T11:52:27.522Z,1.40
2022-12-28T11:53:32.578Z,1.00
2022-12-28T11:54:50.168Z,1.30
2022-12-28T11:56:12.199Z,1.50
2022-12-28T11:57:36.987Z,1.45
2022-12-28T11:58:42.444Z,1.00
2022-12-28T11:59:44.283Z,1.63
2022-12-28T12:00:49.475Z,1.10
2022-12-28T12:02:00.426Z,1.17
2022-12-28T12:03:02.320Z,1.25
2022-12-28T12:04:04.175Z,1.40
2022-12-28T12:05:39.519Z,1.00
2022-12-28T12:06:44.152Z,1.23
2022-12-28T12:07:48.095Z,1.45
2022-12-28T12:08:50.665Z,1.25
2022-12-28T12:10:27.373Z,1.30
2022-12-28T12:11:33.303Z,1.42
2022-12-28T12:12:37.609Z,1.35
2022-12-28T12:13:47.790Z,1.20
2022-12-28T12:14:57.547Z,1.30
2022-12-28T12:16:06.973Z,1.20
2022-12-28T12:17:39.768Z,1.17
2022-12-28T12:18:50.641Z,1.13
2022-12-28T12:20:21.615Z,0.93
2022-12-28T12:21:33.465Z,1.25
2022-12-28T12:22:46.515Z,1.13
2022-12-28T12:23:56.734Z,1.40
2022-12-28T12:25:07.541Z,1.08
2022-12-28T12:26:31.258Z,1.40
2022-12-28T12:27:48.916Z,1.30
2022-12-28T12:28:53.027Z,1.60
2022-12-28T12:30:02.238Z,1.20
2022-12-28T12:31:08.615Z,1.30
2022-12-28T12:32:48.462Z,1.35
2022-12-28T12:33:52.896Z,1.10
2022-12-28T12:35:02.032Z,1.73
2022-12-28T12:36:29.766Z,1.40
2022-12-28T12:37:43.562Z,1.30
2022-12-28T12:39:14.320Z,1.52
2022-12-28T12:40:44.080Z,1.50
2022-12-28T12:42:06.077Z,1.35
2022-12-28T12:43:29.615Z,1.45
2022-12-28T12:44:36.186Z,1.30
2022-12-28T12:45:48.192Z,1.30
2022-12-28T12:47:13.294Z,1.30
2022-12-28T12:48:38.135Z,1.30
2022-12-28T12:49:58.717Z,1.83
2022-12-28T12:51:25.256Z,1.33
2022-12-28T12:52:42.404Z,1.23
2022-12-28T12:53:53.526Z,1.50
2022-12-28T12:55:14.047Z,1.50
2022-12-28T12:56:49.158Z,1.50
2022-12-28T12:57:58.700Z,1.58
2022-12-28T12:59:12.874Z,1.50
2022-12-28T13:00:22.307Z,1.00
2022-12-28T13:01:24.187Z,1.60
2022-12-28T13:02:32.548Z,1.40
2022-12-28T13:03:54.061Z,1.20
2022-12-28T13:04:56.156Z,1.58
2022-12-28T13:05:58.557Z,1.33
2022-12-28T13:07:05.067Z,1.35
2022-12-28T13:08:06.949Z,1.48
2022-12-28T13:09:15.845Z,1.40
2022-12-28T13:10:34.759Z,1.25
2022-12-28T13:11:38.684Z,1.38
2022-12-28T13:12:41.413Z,1.15
2022-12-28T13:13:47.254Z,1.42
2022-12-28T13:14:57.298Z,1.63
2022-12-28T13:16:03.671Z,1.50
2022-12-28T13:17:13.949Z,1.30
2022-12-28T13:19:41.852Z,1.67
2022-12-28T13:21:00.110Z,1.50
2022-12-28T13:22:02.073Z,1.27
2022-12-28T13:23:03.908Z,1.60
2022-12-28T13:24:28.347Z,1.67
2022-12-28T13:25:32.916Z,1.75
2022-12-28T13:26:34.763Z,1.50
2022-12-28T13:27:36.658Z,1.40
2022-12-28T13:28:49.937Z,1.35
2022-12-28T13:29:53.953Z,1.27
2022-12-28T13:31:21.291Z,1.52
2022-12-28T13:32:38.268Z,1.52
2022-12-28T13:33:40.483Z,1.35
2022-12-28T13:34:49.569Z,1.60
2022-12-28T13:35:51.515Z,1.60
2022-12-28T13:36:58.419Z,1.40
2022-12-28T13:38:09.009Z,1.63
2022-12-28T13:39:14.206Z,1.50
2022-12-28T13:40:17.873Z,1.80
2022-12-28T13:41:25.931Z,1.33
2022-12-28T13:42:37.180Z,1.60
2022-12-28T13:44:08.539Z,1.67
2022-12-28T13:45:15.811Z,1.50
2022-12-28T13:46:20.290Z,1.70
2022-12-28T13:47:47.989Z,1.35
2022-12-28T13:48:54.223Z,1.52
2022-12-28T13:50:05.683Z,1.42
2022-12-28T13:51:15.287Z,1.30
2022-12-28T13:52:41.034Z,1.35
2022-12-28T13:53:47.485Z,1.60
2022-12-28T13:54:55.318Z,1.42
2022-12-28T13:56:03.099Z,1.80
2022-12-28T13:57:44.658Z,1.55
2022-12-28T13:58:31.761Z,1.80
2022-12-28T13:59:35.829Z,1.60
2022-12-28T14:00:39.261Z,1.50
2022-12-28T14:01:44.733Z,1.50
2022-12-28T14:02:48.206Z,1.52
2022-12-28T14:03:54.849Z,1.67
2022-12-28T14:04:57.150Z,1.65
2022-12-28T14:06:00.340Z,1.50
2022-12-28T14:07:02.154Z,1.50
2022-12-28T14:08:06.233Z,1.95
2022-12-28T14:09:11.772Z,1.48
2022-12-28T14:10:13.874Z,1.52
2022-12-28T14:11:17.287Z,1.42
2022-12-28T14:12:20.067Z,1.50
2022-12-28T14:13:23.124Z,1.30
2022-12-28T14:14:25.393Z,1.50
2022-12-28T14:15:28.033Z,1.48
2022-12-28T14:16:31.452Z,1.67
2022-12-28T14:17:37.534Z,1.50
2022-12-28T14:18:40.294Z,1.60
2022-12-28T14:19:43.305Z,1.55
2022-12-28T14:20:54.043Z,1.90
2022-12-28T14:21:55.851Z,1.70
2022-12-28T14:23:27.069Z,1.73
2022-12-28T14:24:28.847Z,1.63
2022-12-28T14:25:42.068Z,1.90
2022-12-28T14:26:58.051Z,1.58
2022-12-28T14:28:06.280Z,1.50
2022-12-28T14:29:21.216Z,1.35
2022-12-28T14:30:26.660Z,1.40
2022-12-28T14:31:31.252Z,1.40
2022-12-28T14:34:00.917Z,1.85
2022-12-28T14:35:03.300Z,1.73
2022-12-28T14:36:08.088Z,1.35
2022-12-28T14:37:28.212Z,1.52
2022-12-28T14:38:38.394Z,1.60
2022-12-28T14:39:44.589Z,1.73
2022-12-28T14:40:53.758Z,1.40
2022-12-28T14:41:56.254Z,1.75
2022-12-28T14:43:01.554Z,1.52
2022-12-28T14:44:07.676Z,1.35
2022-12-28T14:47:47.147Z,1.40
2022-12-28T14:48:49.130Z,1.73
2022-12-28T14:49:58.619Z,1.58
2022-12-28T14:51:26.030Z,1.55
2022-12-28T14:52:37.462Z,1.40
2022-12-28T14:53:39.442Z,1.70
2022-12-28T14:54:58.840Z,1.33
2022-12-28T14:56:17.834Z,1.55
2022-12-28T14:57:19.777Z,1.50